logo
Search for airport 
image banner adimage banner adimage banner ad
image banner ad

MZRD - Rio Dorado Airstrip

Located in , Belize

ICAO - , IATA -

Data provided by Airmate  

General information

Coordinates: N16°18'42" W88°49'33"
Elevation is 95 feet MSL.
 
View others Airports in Toledo District

Operational data

Special qualification required
Current time UTC:
Current local time:
Weather at : - ( 0 km )
METAR: PAII 201201Z AUTO 11004KT 1/2SM FG BKN001 OVC035 00/M01 A3005 RMK AO2 FZRANO
View NOTAMs / SUP AIP / TFR affecting this airport [VIEW]
Communications frequencies: [VIEW]

Runways:

Airport contact information

Address: Belize

Satellite view of MZRD